Terminal Aerodrome Forecast
Issued by NWS Twin Cities, MN

Home | Current Version | Previous Version | Text Only | Print | Product List | Glossary On
Versions: 1 2 3 4 5 6 7 8 9 10 11 12 13 14 15 16 17 18 19 20 21 22 23 24
000
FTUS43 KMPX 271442 AAA
TAFMSP
TAF AMD
KMSP 271442Z 2715/2818 12007KT P6SM -SHRA SCT020 OVC070
     FM271800 13007KT P6SM BKN020 OVC050
     FM272100 14007KT P6SM BKN035 OVC050
     FM280200 15005KT P6SM SCT035 BKN150=

USA.gov is the U.S. government's official web portal to all federal, state and local government web resources and services.